sensor_id;sensor_type;location;lat;lon;timestamp;temperature;humidity
18207;DHT22;9229;52.354;20.886;2024-01-16T00:05:46;-1.10;99.90
18207;DHT22;9229;52.354;20.886;2024-01-16T00:10:51;-1.20;99.90
18207;DHT22;9229;52.354;20.886;2024-01-16T00:15:53;-1.20;99.90
18207;DHT22;9229;52.354;20.886;2024-01-16T00:26:01;-1.20;99.90
18207;DHT22;9229;52.354;20.886;2024-01-16T00:31:07;-1.20;99.90
18207;DHT22;9229;52.354;20.886;2024-01-16T00:36:10;-1.10;99.90
18207;DHT22;9229;52.354;20.886;2024-01-16T00:41:13;-1.20;99.90
18207;DHT22;9229;52.354;20.886;2024-01-16T00:46:16;-1.20;99.90
18207;DHT22;9229;52.354;20.886;2024-01-16T00:51:18;-1.20;99.90
18207;DHT22;9229;52.354;20.886;2024-01-16T00:56:21;-1.20;99.90
18207;DHT22;9229;52.354;20.886;2024-01-16T01:01:23;-1.30;99.90
18207;DHT22;9229;52.354;20.886;2024-01-16T01:06:26;-1.40;99.90
18207;DHT22;9229;52.354;20.886;2024-01-16T01:11:29;-1.30;99.90
18207;DHT22;9229;52.354;20.886;2024-01-16T01:16:31;-1.40;99.90
18207;DHT22;9229;52.354;20.886;2024-01-16T01:21:35;-1.40;99.90
18207;DHT22;9229;52.354;20.886;2024-01-16T01:26:39;-1.50;99.90
18207;DHT22;9229;52.354;20.886;2024-01-16T01:31:41;-1.60;99.90
18207;DHT22;9229;52.354;20.886;2024-01-16T01:36:46;-1.60;99.90
18207;DHT22;9229;52.354;20.886;2024-01-16T01:41:50;-1.70;99.90
18207;DHT22;9229;52.354;20.886;2024-01-16T01:46:54;-1.70;99.90
18207;DHT22;9229;52.354;20.886;2024-01-16T01:51:57;-1.80;99.90
18207;DHT22;9229;52.354;20.886;2024-01-16T01:57:01;-1.80;99.90
18207;DHT22;9229;52.354;20.886;2024-01-16T02:02:04;-1.80;99.90
18207;DHT22;9229;52.354;20.886;2024-01-16T02:07:07;-1.90;99.90
18207;DHT22;9229;52.354;20.886;2024-01-16T02:12:11;-1.90;99.90
18207;DHT22;9229;52.354;20.886;2024-01-16T02:17:14;-1.90;99.90
18207;DHT22;9229;52.354;20.886;2024-01-16T02:22:24;-1.90;99.90
18207;DHT22;9229;52.354;20.886;2024-01-16T02:28:07;-2.10;99.90
18207;DHT22;9229;52.354;20.886;2024-01-16T02:33:48;-2.10;99.90
18207;DHT22;9229;52.354;20.886;2024-01-16T02:38:50;-2.10;99.90
18207;DHT22;9229;52.354;20.886;2024-01-16T02:43:54;-2.20;99.90
18207;DHT22;9229;52.354;20.886;2024-01-16T02:48:56;-2.20;99.90
18207;DHT22;9229;52.354;20.886;2024-01-16T02:53:58;-2.20;99.90
18207;DHT22;9229;52.354;20.886;2024-01-16T02:59:05;-2.20;99.90
18207;DHT22;9229;52.354;20.886;2024-01-16T03:04:07;-2.30;99.90
18207;DHT22;9229;52.354;20.886;2024-01-16T03:09:09;-2.40;99.90
18207;DHT22;9229;52.354;20.886;2024-01-16T03:14:14;-2.40;99.90
18207;DHT22;9229;52.354;20.886;2024-01-16T03:19:16;-2.50;99.90
18207;DHT22;9229;52.354;20.886;2024-01-16T03:24:18;-2.60;99.90
18207;DHT22;9229;52.354;20.886;2024-01-16T03:29:22;-2.70;99.90
18207;DHT22;9229;52.354;20.886;2024-01-16T03:34:24;-2.80;99.90
18207;DHT22;9229;52.354;20.886;2024-01-16T03:39:26;-2.90;99.90
18207;DHT22;9229;52.354;20.886;2024-01-16T03:44:29;-3.00;99.90
18207;DHT22;9229;52.354;20.886;2024-01-16T03:49:31;-3.10;99.90
18207;DHT22;9229;52.354;20.886;2024-01-16T03:54:33;-3.20;99.90
18207;DHT22;9229;52.354;20.886;2024-01-16T03:59:38;-3.30;99.90
18207;DHT22;9229;52.354;20.886;2024-01-16T04:04:40;-3.30;99.90
18207;DHT22;9229;52.354;20.886;2024-01-16T04:09:43;-3.50;99.90
18207;DHT22;9229;52.354;20.886;2024-01-16T04:14:47;-3.50;99.90
18207;DHT22;9229;52.354;20.886;2024-01-16T04:19:51;-3.60;99.90
18207;DHT22;9229;52.354;20.886;2024-01-16T04:24:53;-3.60;99.90
18207;DHT22;9229;52.354;20.886;2024-01-16T04:29:58;-3.70;99.90
18207;DHT22;9229;52.354;20.886;2024-01-16T04:35:00;-3.70;99.90
18207;DHT22;9229;52.354;20.886;2024-01-16T04:40:03;-3.70;99.90
18207;DHT22;9229;52.354;20.886;2024-01-16T04:45:08;-3.80;99.90
18207;DHT22;9229;52.354;20.886;2024-01-16T04:50:10;-3.90;99.90
18207;DHT22;9229;52.354;20.886;2024-01-16T04:55:12;-4.00;99.90
18207;DHT22;9229;52.354;20.886;2024-01-16T05:00:16;-4.10;99.90
18207;DHT22;9229;52.354;20.886;2024-01-16T05:05:18;-4.10;99.90
18207;DHT22;9229;52.354;20.886;2024-01-16T05:10:20;-4.20;99.90
18207;DHT22;9229;52.354;20.886;2024-01-16T05:15:24;-4.20;99.90
18207;DHT22;9229;52.354;20.886;2024-01-16T05:20:26;-4.30;99.90
18207;DHT22;9229;52.354;20.886;2024-01-16T05:25:29;-4.30;99.90
18207;DHT22;9229;52.354;20.886;2024-01-16T05:30:33;-4.40;99.90
18207;DHT22;9229;52.354;20.886;2024-01-16T05:35:35;-4.40;99.90
18207;DHT22;9229;52.354;20.886;2024-01-16T05:40:37;-4.40;99.90
18207;DHT22;9229;52.354;20.886;2024-01-16T05:45:40;-4.40;99.90
18207;DHT22;9229;52.354;20.886;2024-01-16T05:50:43;-4.40;99.90
18207;DHT22;9229;52.354;20.886;2024-01-16T05:55:45;-4.40;99.90
18207;DHT22;9229;52.354;20.886;2024-01-16T06:00:49;-4.40;99.90
18207;DHT22;9229;52.354;20.886;2024-01-16T06:05:51;-4.40;99.90
18207;DHT22;9229;52.354;20.886;2024-01-16T06:10:53;-4.40;99.90
18207;DHT22;9229;52.354;20.886;2024-01-16T06:15:56;-4.40;99.90
18207;DHT22;9229;52.354;20.886;2024-01-16T06:20:58;-4.30;99.90
18207;DHT22;9229;52.354;20.886;2024-01-16T06:26:01;-4.30;99.90
18207;DHT22;9229;52.354;20.886;2024-01-16T06:31:05;-4.30;99.90
18207;DHT22;9229;52.354;20.886;2024-01-16T06:36:07;-4.20;99.90
18207;DHT22;9229;52.354;20.886;2024-01-16T06:41:09;-4.30;99.90
18207;DHT22;9229;52.354;20.886;2024-01-16T06:46:13;-4.30;99.90
18207;DHT22;9229;52.354;20.886;2024-01-16T06:51:15;-4.30;99.90
18207;DHT22;9229;52.354;20.886;2024-01-16T06:56:18;-4.30;99.90
18207;DHT22;9229;52.354;20.886;2024-01-16T07:01:22;-4.30;99.90
18207;DHT22;9229;52.354;20.886;2024-01-16T07:06:24;-4.40;99.90
18207;DHT22;9229;52.354;20.886;2024-01-16T07:11:26;-4.40;99.90
18207;DHT22;9229;52.354;20.886;2024-01-16T07:16:29;-4.40;99.90
18207;DHT22;9229;52.354;20.886;2024-01-16T07:21:31;-4.40;99.90
18207;DHT22;9229;52.354;20.886;2024-01-16T07:26:34;-4.50;99.90
18207;DHT22;9229;52.354;20.886;2024-01-16T07:31:38;-4.50;99.90
18207;DHT22;9229;52.354;20.886;2024-01-16T07:36:40;-4.50;99.90
18207;DHT22;9229;52.354;20.886;2024-01-16T07:41:42;-4.60;99.90
18207;DHT22;9229;52.354;20.886;2024-01-16T07:46:46;-4.70;99.90
18207;DHT22;9229;52.354;20.886;2024-01-16T07:51:47;-4.70;99.90
18207;DHT22;9229;52.354;20.886;2024-01-16T07:56:49;-4.70;99.90
18207;DHT22;9229;52.354;20.886;2024-01-16T08:01:53;-4.70;99.90
18207;DHT22;9229;52.354;20.886;2024-01-16T08:06:56;-4.70;99.90
18207;DHT22;9229;52.354;20.886;2024-01-16T08:11:58;-4.60;99.90
18207;DHT22;9229;52.354;20.886;2024-01-16T08:17:04;-4.60;99.90
18207;DHT22;9229;52.354;20.886;2024-01-16T08:22:06;-4.60;99.90
18207;DHT22;9229;52.354;20.886;2024-01-16T08:27:09;-4.50;99.90
18207;DHT22;9229;52.354;20.886;2024-01-16T08:32:12;-4.40;99.90
18207;DHT22;9229;52.354;20.886;2024-01-16T08:37:14;-4.40;99.90
18207;DHT22;9229;52.354;20.886;2024-01-16T08:42:16;-4.30;99.90
18207;DHT22;9229;52.354;20.886;2024-01-16T08:47:21;-4.30;99.90
18207;DHT22;9229;52.354;20.886;2024-01-16T08:52:23;-4.30;99.90
18207;DHT22;9229;52.354;20.886;2024-01-16T08:57:25;-4.20;99.90
18207;DHT22;9229;52.354;20.886;2024-01-16T09:02:28;-4.10;99.90
18207;DHT22;9229;52.354;20.886;2024-01-16T09:07:32;-4.10;99.90
18207;DHT22;9229;52.354;20.886;2024-01-16T09:12:35;-4.00;99.90
18207;DHT22;9229;52.354;20.886;2024-01-16T09:17:38;-4.00;99.90
18207;DHT22;9229;52.354;20.886;2024-01-16T09:22:40;-4.00;99.90
18207;DHT22;9229;52.354;20.886;2024-01-16T09:27:49;-3.90;99.90
18207;DHT22;9229;52.354;20.886;2024-01-16T09:32:52;-3.80;99.90
18207;DHT22;9229;52.354;20.886;2024-01-16T09:37:54;-3.80;99.90
18207;DHT22;9229;52.354;20.886;2024-01-16T09:42:57;-3.70;99.90
18207;DHT22;9229;52.354;20.886;2024-01-16T09:48:02;-3.60;99.90
18207;DHT22;9229;52.354;20.886;2024-01-16T09:53:07;-3.60;99.90
18207;DHT22;9229;52.354;20.886;2024-01-16T09:58:12;-3.50;99.90
18207;DHT22;9229;52.354;20.886;2024-01-16T10:03:16;-3.50;99.90
18207;DHT22;9229;52.354;20.886;2024-01-16T10:08:19;-3.30;99.90
18207;DHT22;9229;52.354;20.886;2024-01-16T10:13:22;-3.30;99.90
18207;DHT22;9229;52.354;20.886;2024-01-16T10:18:27;-3.20;99.90
18207;DHT22;9229;52.354;20.886;2024-01-16T10:23:31;-3.10;99.90
18207;DHT22;9229;52.354;20.886;2024-01-16T10:28:33;-2.90;99.90
18207;DHT22;9229;52.354;20.886;2024-01-16T10:33:38;-2.70;99.90
18207;DHT22;9229;52.354;20.886;2024-01-16T10:38:41;-2.60;99.90
18207;DHT22;9229;52.354;20.886;2024-01-16T10:43:44;-2.50;99.90
18207;DHT22;9229;52.354;20.886;2024-01-16T10:49:01;-2.40;99.90
18207;DHT22;9229;52.354;20.886;2024-01-16T10:54:05;-2.30;99.90
18207;DHT22;9229;52.354;20.886;2024-01-16T10:59:19;-2.10;99.90
18207;DHT22;9229;52.354;20.886;2024-01-16T11:04:24;-2.10;99.90
18207;DHT22;9229;52.354;20.886;2024-01-16T11:09:27;-2.00;99.90
18207;DHT22;9229;52.354;20.886;2024-01-16T11:14:30;-2.00;99.90
18207;DHT22;9229;52.354;20.886;2024-01-16T11:19:34;-2.00;99.90
18207;DHT22;9229;52.354;20.886;2024-01-16T11:24:37;-2.00;99.90
18207;DHT22;9229;52.354;20.886;2024-01-16T11:29:39;-2.00;99.90
18207;DHT22;9229;52.354;20.886;2024-01-16T11:34:54;-2.10;99.90
18207;DHT22;9229;52.354;20.886;2024-01-16T11:40:23;-2.10;99.90
18207;DHT22;9229;52.354;20.886;2024-01-16T11:45:48;-2.20;99.90
18207;DHT22;9229;52.354;20.886;2024-01-16T11:50:53;-2.30;99.90
18207;DHT22;9229;52.354;20.886;2024-01-16T11:56:15;-2.40;99.90
18207;DHT22;9229;52.354;20.886;2024-01-16T12:01:18;-2.40;99.90
18207;DHT22;9229;52.354;20.886;2024-01-16T12:06:22;-2.30;99.90
18207;DHT22;9229;52.354;20.886;2024-01-16T12:11:24;-2.20;99.90
18207;DHT22;9229;52.354;20.886;2024-01-16T12:16:26;-2.20;99.90
18207;DHT22;9229;52.354;20.886;2024-01-16T12:21:29;-2.10;99.90
18207;DHT22;9229;52.354;20.886;2024-01-16T12:26:32;-2.10;99.90
18207;DHT22;9229;52.354;20.886;2024-01-16T12:31:35;-2.00;99.90
18207;DHT22;9229;52.354;20.886;2024-01-16T12:36:42;-2.10;99.90
18207;DHT22;9229;52.354;20.886;2024-01-16T12:41:46;-1.90;99.90
18207;DHT22;9229;52.354;20.886;2024-01-16T12:46:54;-2.00;99.90
18207;DHT22;9229;52.354;20.886;2024-01-16T12:52:19;-2.00;99.90
18207;DHT22;9229;52.354;20.886;2024-01-16T12:57:21;-1.90;99.90
18207;DHT22;9229;52.354;20.886;2024-01-16T13:02:24;-1.80;99.90
18207;DHT22;9229;52.354;20.886;2024-01-16T13:07:28;-1.80;99.50
18207;DHT22;9229;52.354;20.886;2024-01-16T13:12:32;-1.80;99.90
18207;DHT22;9229;52.354;20.886;2024-01-16T13:17:35;-1.80;99.60
18207;DHT22;9229;52.354;20.886;2024-01-16T13:22:39;-1.90;99.20
18207;DHT22;9229;52.354;20.886;2024-01-16T13:33:58;-2.00;99.40
18207;DHT22;9229;52.354;20.886;2024-01-16T13:39:02;-2.10;99.80
18207;DHT22;9229;52.354;20.886;2024-01-16T13:44:06;-2.20;99.40
18207;DHT22;9229;52.354;20.886;2024-01-16T13:49:09;-2.30;99.80
18207;DHT22;9229;52.354;20.886;2024-01-16T13:54:12;-2.40;99.90
18207;DHT22;9229;52.354;20.886;2024-01-16T13:59:14;-2.40;99.90
18207;DHT22;9229;52.354;20.886;2024-01-16T14:04:16;-2.50;99.90
18207;DHT22;9229;52.354;20.886;2024-01-16T14:09:19;-2.60;99.90
18207;DHT22;9229;52.354;20.886;2024-01-16T14:14:21;-2.70;99.90
18207;DHT22;9229;52.354;20.886;2024-01-16T14:19:23;-2.70;99.90
18207;DHT22;9229;52.354;20.886;2024-01-16T14:24:28;-2.80;99.90
18207;DHT22;9229;52.354;20.886;2024-01-16T14:29:30;-2.90;99.90
18207;DHT22;9229;52.354;20.886;2024-01-16T14:34:35;-2.90;99.90
18207;DHT22;9229;52.354;20.886;2024-01-16T14:39:39;-3.00;99.90
18207;DHT22;9229;52.354;20.886;2024-01-16T14:44:44;-3.00;99.90
18207;DHT22;9229;52.354;20.886;2024-01-16T14:49:47;-3.10;99.90
18207;DHT22;9229;52.354;20.886;2024-01-16T14:54:51;-3.10;99.90
18207;DHT22;9229;52.354;20.886;2024-01-16T14:59:53;-3.20;99.90
18207;DHT22;9229;52.354;20.886;2024-01-16T15:04:55;-3.20;99.90
18207;DHT22;9229;52.354;20.886;2024-01-16T15:09:58;-3.30;99.90
18207;DHT22;9229;52.354;20.886;2024-01-16T15:15:01;-3.30;99.90
18207;DHT22;9229;52.354;20.886;2024-01-16T15:20:04;-3.30;99.90
18207;DHT22;9229;52.354;20.886;2024-01-16T15:25:10;-3.30;99.90
18207;DHT22;9229;52.354;20.886;2024-01-16T15:30:14;-3.30;99.90
18207;DHT22;9229;52.354;20.886;2024-01-16T15:35:16;-3.30;99.90
18207;DHT22;9229;52.354;20.886;2024-01-16T15:40:21;-3.40;99.90
18207;DHT22;9229;52.354;20.886;2024-01-16T15:45:24;-3.40;99.90
18207;DHT22;9229;52.354;20.886;2024-01-16T15:50:26;-3.40;99.90
18207;DHT22;9229;52.354;20.886;2024-01-16T15:55:30;-3.40;99.90
18207;DHT22;9229;52.354;20.886;2024-01-16T16:00:32;-3.40;99.90
18207;DHT22;9229;52.354;20.886;2024-01-16T16:05:35;-3.40;99.90
18207;DHT22;9229;52.354;20.886;2024-01-16T16:10:38;-3.30;99.90
18207;DHT22;9229;52.354;20.886;2024-01-16T16:15:42;-3.50;99.90
18207;DHT22;9229;52.354;20.886;2024-01-16T16:20:44;-3.60;99.90
18207;DHT22;9229;52.354;20.886;2024-01-16T16:25:48;-3.70;99.90
18207;DHT22;9229;52.354;20.886;2024-01-16T16:30:50;-3.90;99.90
18207;DHT22;9229;52.354;20.886;2024-01-16T16:35:52;-3.90;99.90
18207;DHT22;9229;52.354;20.886;2024-01-16T16:40:56;-4.00;99.90
18207;DHT22;9229;52.354;20.886;2024-01-16T16:45:58;-4.00;99.90
18207;DHT22;9229;52.354;20.886;2024-01-16T16:51:00;-4.10;99.90
18207;DHT22;9229;52.354;20.886;2024-01-16T16:56:04;-4.20;99.90
18207;DHT22;9229;52.354;20.886;2024-01-16T17:01:07;-4.30;99.90
18207;DHT22;9229;52.354;20.886;2024-01-16T17:06:09;-4.30;99.90
18207;DHT22;9229;52.354;20.886;2024-01-16T17:11:13;-4.40;99.90
18207;DHT22;9229;52.354;20.886;2024-01-16T17:16:15;-4.50;99.90
18207;DHT22;9229;52.354;20.886;2024-01-16T17:21:23;-4.70;99.90
18207;DHT22;9229;52.354;20.886;2024-01-16T17:26:26;-4.90;99.90
18207;DHT22;9229;52.354;20.886;2024-01-16T17:31:28;-5.00;99.90
18207;DHT22;9229;52.354;20.886;2024-01-16T17:36:30;-5.00;99.90
18207;DHT22;9229;52.354;20.886;2024-01-16T17:41:36;-5.00;99.90
18207;DHT22;9229;52.354;20.886;2024-01-16T17:46:42;-5.00;99.90
18207;DHT22;9229;52.354;20.886;2024-01-16T17:51:45;-5.00;99.90
18207;DHT22;9229;52.354;20.886;2024-01-16T17:56:50;-5.10;99.90
18207;DHT22;9229;52.354;20.886;2024-01-16T18:01:52;-5.10;99.90
18207;DHT22;9229;52.354;20.886;2024-01-16T18:06:54;-5.10;99.90
18207;DHT22;9229;52.354;20.886;2024-01-16T18:11:58;-5.20;99.90
18207;DHT22;9229;52.354;20.886;2024-01-16T18:17:01;-5.20;99.90
18207;DHT22;9229;52.354;20.886;2024-01-16T18:22:03;-5.20;99.90
18207;DHT22;9229;52.354;20.886;2024-01-16T18:27:09;-5.40;99.90
18207;DHT22;9229;52.354;20.886;2024-01-16T18:32:11;-5.50;99.90
18207;DHT22;9229;52.354;20.886;2024-01-16T18:37:13;-5.60;99.90
18207;DHT22;9229;52.354;20.886;2024-01-16T18:42:17;-5.70;99.90
18207;DHT22;9229;52.354;20.886;2024-01-16T18:47:23;-5.80;99.90
18207;DHT22;9229;52.354;20.886;2024-01-16T18:52:25;-6.00;99.90
18207;DHT22;9229;52.354;20.886;2024-01-16T18:57:28;-5.90;99.90
18207;DHT22;9229;52.354;20.886;2024-01-16T19:02:32;-6.10;99.90
18207;DHT22;9229;52.354;20.886;2024-01-16T19:07:34;-6.10;99.90
18207;DHT22;9229;52.354;20.886;2024-01-16T19:12:42;-6.20;99.90
18207;DHT22;9229;52.354;20.886;2024-01-16T19:17:47;-6.20;99.90
18207;DHT22;9229;52.354;20.886;2024-01-16T19:22:49;-6.20;99.90
18207;DHT22;9229;52.354;20.886;2024-01-16T19:27:57;-6.30;99.90
18207;DHT22;9229;52.354;20.886;2024-01-16T19:33:02;-6.40;99.90
18207;DHT22;9229;52.354;20.886;2024-01-16T19:38:08;-6.30;99.90
18207;DHT22;9229;52.354;20.886;2024-01-16T19:43:13;-6.40;99.90
18207;DHT22;9229;52.354;20.886;2024-01-16T19:48:18;-6.40;99.90
18207;DHT22;9229;52.354;20.886;2024-01-16T19:53:20;-6.50;99.90
18207;DHT22;9229;52.354;20.886;2024-01-16T19:58:26;-6.60;99.90
18207;DHT22;9229;52.354;20.886;2024-01-16T20:03:28;-6.60;99.90
18207;DHT22;9229;52.354;20.886;2024-01-16T20:08:33;-6.70;99.90
18207;DHT22;9229;52.354;20.886;2024-01-16T20:13:53;-6.70;99.90
18207;DHT22;9229;52.354;20.886;2024-01-16T20:18:55;-6.70;99.90
18207;DHT22;9229;52.354;20.886;2024-01-16T20:23:58;-6.80;99.90
18207;DHT22;9229;52.354;20.886;2024-01-16T20:29:03;-6.90;99.90
18207;DHT22;9229;52.354;20.886;2024-01-16T20:34:05;-6.90;99.90
18207;DHT22;9229;52.354;20.886;2024-01-16T20:39:08;-6.90;99.90
18207;DHT22;9229;52.354;20.886;2024-01-16T20:44:14;-6.90;99.90
18207;DHT22;9229;52.354;20.886;2024-01-16T20:49:21;-6.90;99.90
18207;DHT22;9229;52.354;20.886;2024-01-16T20:54:26;-6.90;99.90
18207;DHT22;9229;52.354;20.886;2024-01-16T20:59:33;-6.90;99.90
18207;DHT22;9229;52.354;20.886;2024-01-16T21:04:35;-6.90;99.90
18207;DHT22;9229;52.354;20.886;2024-01-16T21:09:37;-7.20;99.90
18207;DHT22;9229;52.354;20.886;2024-01-16T21:14:43;-7.20;99.90
18207;DHT22;9229;52.354;20.886;2024-01-16T21:19:45;-7.10;99.90
18207;DHT22;9229;52.354;20.886;2024-01-16T21:24:50;-7.10;99.90
18207;DHT22;9229;52.354;20.886;2024-01-16T21:29:53;-7.10;99.90
18207;DHT22;9229;52.354;20.886;2024-01-16T21:34:55;-7.20;99.90
18207;DHT22;9229;52.354;20.886;2024-01-16T21:39:58;-7.20;99.90
18207;DHT22;9229;52.354;20.886;2024-01-16T21:45:04;-7.20;99.90
18207;DHT22;9229;52.354;20.886;2024-01-16T21:50:07;-7.30;99.90
18207;DHT22;9229;52.354;20.886;2024-01-16T21:55:12;-7.30;99.90
18207;DHT22;9229;52.354;20.886;2024-01-16T22:00:25;-7.30;99.90
18207;DHT22;9229;52.354;20.886;2024-01-16T22:05:33;-7.30;99.90
18207;DHT22;9229;52.354;20.886;2024-01-16T22:10:36;-7.30;99.90
18207;DHT22;9229;52.354;20.886;2024-01-16T22:15:44;-7.20;99.90
18207;DHT22;9229;52.354;20.886;2024-01-16T22:20:46;-7.50;99.90
18207;DHT22;9229;52.354;20.886;2024-01-16T22:25:48;-7.60;99.90
18207;DHT22;9229;52.354;20.886;2024-01-16T22:30:51;-7.70;99.90
18207;DHT22;9229;52.354;20.886;2024-01-16T22:35:53;-7.70;99.90
18207;DHT22;9229;52.354;20.886;2024-01-16T22:40:55;-7.60;99.90
18207;DHT22;9229;52.354;20.886;2024-01-16T22:45:59;-7.60;99.90
18207;DHT22;9229;52.354;20.886;2024-01-16T22:51:01;-7.70;99.90
18207;DHT22;9229;52.354;20.886;2024-01-16T22:56:03;-7.70;99.90
18207;DHT22;9229;52.354;20.886;2024-01-16T23:01:08;-7.60;99.90
18207;DHT22;9229;52.354;20.886;2024-01-16T23:06:15;-7.50;99.90
18207;DHT22;9229;52.354;20.886;2024-01-16T23:11:18;-7.50;99.90
18207;DHT22;9229;52.354;20.886;2024-01-16T23:16:22;-7.50;99.90
18207;DHT22;9229;52.354;20.886;2024-01-16T23:21:24;-7.20;99.90
18207;DHT22;9229;52.354;20.886;2024-01-16T23:26:27;-7.30;99.90
18207;DHT22;9229;52.354;20.886;2024-01-16T23:31:32;-7.20;99.90
18207;DHT22;9229;52.354;20.886;2024-01-16T23:36:33;-7.10;99.90
18207;DHT22;9229;52.354;20.886;2024-01-16T23:41:37;-7.00;99.90
18207;DHT22;9229;52.354;20.886;2024-01-16T23:46:40;-6.90;99.90
18207;DHT22;9229;52.354;20.886;2024-01-16T23:51:43;-6.80;99.90
18207;DHT22;9229;52.354;20.886;2024-01-16T23:56:45;-6.70;99.90
